sensor_id;sensor_type;location;lat;lon;timestamp;pressure;altitude;pressure_sealevel;temperature;humidity
86602;BME280;77266;52.284;20.890;2024-03-17T00:00:05;100441.02;;;18.49;47.36
86602;BME280;77266;52.284;20.890;2024-03-17T00:02:40;100439.95;;;18.50;47.39
86602;BME280;77266;52.284;20.890;2024-03-17T00:05:11;100438.82;;;18.46;47.69
86602;BME280;77266;52.284;20.890;2024-03-17T00:07:44;100437.58;;;18.47;47.54
86602;BME280;77266;52.284;20.890;2024-03-17T00:10:18;100444.61;;;18.46;47.75
86602;BME280;77266;52.284;20.890;2024-03-17T00:12:52;100447.80;;;18.45;47.56
86602;BME280;77266;52.284;20.890;2024-03-17T00:15:23;100451.78;;;18.42;47.34
86602;BME280;77266;52.284;20.890;2024-03-17T00:17:53;100451.01;;;18.42;47.35
86602;BME280;77266;52.284;20.890;2024-03-17T00:20:24;100453.48;;;18.44;47.28
86602;BME280;77266;52.284;20.890;2024-03-17T00:22:57;100453.83;;;18.40;47.27
86602;BME280;77266;52.284;20.890;2024-03-17T00:25:29;100451.05;;;18.38;47.46
86602;BME280;77266;52.284;20.890;2024-03-17T00:28:04;100448.93;;;18.36;46.80
86602;BME280;77266;52.284;20.890;2024-03-17T00:30:36;100452.88;;;18.38;46.99
86602;BME280;77266;52.284;20.890;2024-03-17T00:33:09;100454.18;;;18.35;47.19
86602;BME280;77266;52.284;20.890;2024-03-17T00:35:40;100456.98;;;18.33;47.04
86602;BME280;77266;52.284;20.890;2024-03-17T00:38:12;100460.21;;;18.33;47.14
86602;BME280;77266;52.284;20.890;2024-03-17T00:40:42;100453.70;;;18.30;46.91
86602;BME280;77266;52.284;20.890;2024-03-17T00:43:14;100456.34;;;18.30;46.76
86602;BME280;77266;52.284;20.890;2024-03-17T00:45:52;100457.27;;;18.30;46.90
86602;BME280;77266;52.284;20.890;2024-03-17T00:48:24;100461.41;;;18.30;46.73
86602;BME280;77266;52.284;20.890;2024-03-17T00:50:58;100461.29;;;18.28;46.71
86602;BME280;77266;52.284;20.890;2024-03-17T00:53:32;100459.23;;;18.27;46.64
86602;BME280;77266;52.284;20.890;2024-03-17T00:56:05;100462.98;;;18.26;46.68
86602;BME280;77266;52.284;20.890;2024-03-17T00:58:37;100463.97;;;18.26;46.74
86602;BME280;77266;52.284;20.890;2024-03-17T01:01:11;100462.77;;;18.25;46.73
86602;BME280;77266;52.284;20.890;2024-03-17T01:03:45;100465.09;;;18.24;46.61
86602;BME280;77266;52.284;20.890;2024-03-17T01:06:17;100466.65;;;18.24;46.44
86602;BME280;77266;52.284;20.890;2024-03-17T01:08:50;100473.05;;;18.23;46.37
86602;BME280;77266;52.284;20.890;2024-03-17T01:11:23;100465.94;;;18.22;46.04
86602;BME280;77266;52.284;20.890;2024-03-17T01:13:54;100468.95;;;18.19;46.29
86602;BME280;77266;52.284;20.890;2024-03-17T01:16:24;100474.63;;;18.17;46.39
86602;BME280;77266;52.284;20.890;2024-03-17T01:18:56;100475.92;;;18.18;46.25
86602;BME280;77266;52.284;20.890;2024-03-17T01:21:30;100478.90;;;18.15;46.28
86602;BME280;77266;52.284;20.890;2024-03-17T01:24:00;100475.66;;;18.13;46.35
86602;BME280;77266;52.284;20.890;2024-03-17T01:26:31;100475.52;;;18.14;46.24
86602;BME280;77266;52.284;20.890;2024-03-17T01:29:02;100479.66;;;18.10;46.24
86602;BME280;77266;52.284;20.890;2024-03-17T01:31:33;100478.02;;;18.10;46.22
86602;BME280;77266;52.284;20.890;2024-03-17T01:34:03;100480.90;;;18.11;46.23
86602;BME280;77266;52.284;20.890;2024-03-17T01:36:35;100481.41;;;18.09;46.25
86602;BME280;77266;52.284;20.890;2024-03-17T01:39:09;100480.62;;;18.07;46.18
86602;BME280;77266;52.284;20.890;2024-03-17T01:41:41;100485.57;;;18.04;46.12
86602;BME280;77266;52.284;20.890;2024-03-17T01:44:23;100484.20;;;18.03;46.29
86602;BME280;77266;52.284;20.890;2024-03-17T01:46:59;100487.06;;;18.01;46.04
86602;BME280;77266;52.284;20.890;2024-03-17T01:49:30;100484.76;;;18.01;46.12
86602;BME280;77266;52.284;20.890;2024-03-17T01:52:06;100486.13;;;18.00;46.04
86602;BME280;77266;52.284;20.890;2024-03-17T01:54:36;100485.73;;;17.98;46.20
86602;BME280;77266;52.284;20.890;2024-03-17T01:57:14;100484.67;;;17.96;45.99
86602;BME280;77266;52.284;20.890;2024-03-17T01:59:48;100482.88;;;17.96;46.04
86602;BME280;77266;52.284;20.890;2024-03-17T02:02:21;100481.94;;;17.95;46.05
86602;BME280;77266;52.284;20.890;2024-03-17T02:04:52;100483.14;;;17.95;45.96
86602;BME280;77266;52.284;20.890;2024-03-17T02:07:26;100483.77;;;17.97;45.92
86602;BME280;77266;52.284;20.890;2024-03-17T02:09:58;100487.02;;;17.97;45.70
86602;BME280;77266;52.284;20.890;2024-03-17T02:12:30;100490.38;;;17.96;45.84
86602;BME280;77266;52.284;20.890;2024-03-17T02:15:01;100489.46;;;17.93;45.83
86602;BME280;77266;52.284;20.890;2024-03-17T02:17:34;100495.90;;;17.94;45.79
86602;BME280;77266;52.284;20.890;2024-03-17T02:20:06;100496.74;;;17.93;45.65
86602;BME280;77266;52.284;20.890;2024-03-17T02:22:38;100497.08;;;17.91;45.73
86602;BME280;77266;52.284;20.890;2024-03-17T02:25:11;100499.06;;;17.89;45.61
86602;BME280;77266;52.284;20.890;2024-03-17T02:27:42;100499.31;;;17.90;45.46
86602;BME280;77266;52.284;20.890;2024-03-17T02:30:18;100497.40;;;17.90;45.58
86602;BME280;77266;52.284;20.890;2024-03-17T02:32:54;100499.73;;;17.89;45.53
86602;BME280;77266;52.284;20.890;2024-03-17T02:35:26;100499.83;;;17.89;45.48
86602;BME280;77266;52.284;20.890;2024-03-17T02:37:56;100504.21;;;17.88;45.30
86602;BME280;77266;52.284;20.890;2024-03-17T02:40:27;100505.16;;;17.88;45.23
86602;BME280;77266;52.284;20.890;2024-03-17T02:43:01;100506.25;;;17.85;45.34
86602;BME280;77266;52.284;20.890;2024-03-17T02:45:33;100507.62;;;17.87;45.23
86602;BME280;77266;52.284;20.890;2024-03-17T02:48:05;100509.63;;;17.86;45.21
86602;BME280;77266;52.284;20.890;2024-03-17T02:50:39;100512.13;;;17.84;45.28
86602;BME280;77266;52.284;20.890;2024-03-17T02:53:09;100510.98;;;17.84;45.16
86602;BME280;77266;52.284;20.890;2024-03-17T02:55:40;100513.66;;;17.82;45.49
86602;BME280;77266;52.284;20.890;2024-03-17T02:58:10;100514.20;;;17.81;45.45
86602;BME280;77266;52.284;20.890;2024-03-17T03:00:43;100515.06;;;17.80;45.75
86602;BME280;77266;52.284;20.890;2024-03-17T03:03:16;100515.95;;;17.79;45.78
86602;BME280;77266;52.284;20.890;2024-03-17T03:05:48;100514.50;;;17.79;46.05
86602;BME280;77266;52.284;20.890;2024-03-17T03:08:19;100516.83;;;17.79;45.98
86602;BME280;77266;52.284;20.890;2024-03-17T03:10:52;100516.75;;;17.77;45.92
86602;BME280;77266;52.284;20.890;2024-03-17T03:13:23;100515.59;;;17.76;46.12
86602;BME280;77266;52.284;20.890;2024-03-17T03:15:56;100513.09;;;17.78;46.03
86602;BME280;77266;52.284;20.890;2024-03-17T03:18:26;100513.55;;;17.76;46.08
86602;BME280;77266;52.284;20.890;2024-03-17T03:20:57;100511.98;;;17.77;46.05
86602;BME280;77266;52.284;20.890;2024-03-17T03:23:31;100511.68;;;17.76;46.21
86602;BME280;77266;52.284;20.890;2024-03-17T03:26:05;100518.45;;;17.78;46.21
86602;BME280;77266;52.284;20.890;2024-03-17T03:28:38;100516.88;;;17.78;46.21
86602;BME280;77266;52.284;20.890;2024-03-17T03:31:11;100515.69;;;17.78;46.14
86602;BME280;77266;52.284;20.890;2024-03-17T03:33:46;100516.33;;;17.78;46.30
86602;BME280;77266;52.284;20.890;2024-03-17T03:36:17;100515.82;;;17.76;46.62
86602;BME280;77266;52.284;20.890;2024-03-17T03:38:49;100510.32;;;17.77;46.56
86602;BME280;77266;52.284;20.890;2024-03-17T03:41:22;100510.49;;;17.76;46.63
86602;BME280;77266;52.284;20.890;2024-03-17T03:43:53;100511.89;;;17.75;46.82
86602;BME280;77266;52.284;20.890;2024-03-17T03:46:23;100507.41;;;17.75;46.90
86602;BME280;77266;52.284;20.890;2024-03-17T03:48:55;100510.50;;;17.74;46.98
86602;BME280;77266;52.284;20.890;2024-03-17T03:51:31;100509.64;;;17.75;46.74
86602;BME280;77266;52.284;20.890;2024-03-17T03:54:01;100505.98;;;17.73;46.85
86602;BME280;77266;52.284;20.890;2024-03-17T03:56:35;100506.30;;;17.73;46.72
86602;BME280;77266;52.284;20.890;2024-03-17T03:59:05;100501.66;;;17.70;46.76
86602;BME280;77266;52.284;20.890;2024-03-17T04:01:37;100506.69;;;17.69;46.81
86602;BME280;77266;52.284;20.890;2024-03-17T04:04:09;100508.39;;;17.70;46.70
86602;BME280;77266;52.284;20.890;2024-03-17T04:06:40;100505.57;;;17.67;46.50
86602;BME280;77266;52.284;20.890;2024-03-17T04:09:13;100506.38;;;17.68;46.50
86602;BME280;77266;52.284;20.890;2024-03-17T04:11:45;100503.61;;;17.67;46.58
86602;BME280;77266;52.284;20.890;2024-03-17T04:14:15;100505.27;;;17.66;46.31
86602;BME280;77266;52.284;20.890;2024-03-17T04:16:46;100505.69;;;17.66;46.37
86602;BME280;77266;52.284;20.890;2024-03-17T04:19:20;100508.98;;;17.65;46.39
86602;BME280;77266;52.284;20.890;2024-03-17T04:21:50;100514.45;;;17.66;46.24
86602;BME280;77266;52.284;20.890;2024-03-17T04:24:21;100512.45;;;17.66;46.17
86602;BME280;77266;52.284;20.890;2024-03-17T04:26:52;100511.36;;;17.65;45.99
86602;BME280;77266;52.284;20.890;2024-03-17T04:29:24;100513.27;;;17.66;45.97
86602;BME280;77266;52.284;20.890;2024-03-17T04:31:57;100513.95;;;17.65;46.04
86602;BME280;77266;52.284;20.890;2024-03-17T04:34:31;100514.30;;;17.63;45.94
86602;BME280;77266;52.284;20.890;2024-03-17T04:37:03;100516.77;;;17.64;45.87
86602;BME280;77266;52.284;20.890;2024-03-17T04:39:36;100515.40;;;17.64;45.81
86602;BME280;77266;52.284;20.890;2024-03-17T04:42:11;100517.90;;;17.63;45.69
86602;BME280;77266;52.284;20.890;2024-03-17T04:44:42;100516.50;;;17.61;45.78
86602;BME280;77266;52.284;20.890;2024-03-17T04:47:14;100514.41;;;17.63;45.65
86602;BME280;77266;52.284;20.890;2024-03-17T04:49:51;100515.55;;;17.61;45.62
86602;BME280;77266;52.284;20.890;2024-03-17T04:52:24;100514.97;;;17.63;45.54
86602;BME280;77266;52.284;20.890;2024-03-17T04:54:56;100516.85;;;17.69;45.65
86602;BME280;77266;52.284;20.890;2024-03-17T04:57:28;100521.00;;;17.76;45.59
86602;BME280;77266;52.284;20.890;2024-03-17T04:59:58;100518.64;;;17.80;45.45
86602;BME280;77266;52.284;20.890;2024-03-17T05:02:28;100520.10;;;17.86;45.26
86602;BME280;77266;52.284;20.890;2024-03-17T05:05:02;100521.34;;;17.95;45.06
86602;BME280;77266;52.284;20.890;2024-03-17T05:07:36;100518.04;;;18.03;44.88
86602;BME280;77266;52.284;20.890;2024-03-17T05:10:08;100519.70;;;18.11;44.63
86602;BME280;77266;52.284;20.890;2024-03-17T05:12:39;100519.33;;;18.18;44.56
86602;BME280;77266;52.284;20.890;2024-03-17T05:15:13;100519.97;;;18.24;44.27
86602;BME280;77266;52.284;20.890;2024-03-17T05:17:48;100519.46;;;18.31;44.25
86602;BME280;77266;52.284;20.890;2024-03-17T05:20:22;100521.73;;;18.38;44.12
86602;BME280;77266;52.284;20.890;2024-03-17T05:22:53;100519.63;;;18.45;44.07
86602;BME280;77266;52.284;20.890;2024-03-17T05:25:24;100518.58;;;18.51;43.88
86602;BME280;77266;52.284;20.890;2024-03-17T05:27:57;100518.83;;;18.58;43.87
86602;BME280;77266;52.284;20.890;2024-03-17T05:30:31;100515.06;;;18.64;43.65
86602;BME280;77266;52.284;20.890;2024-03-17T05:33:07;100519.99;;;18.70;43.48
86602;BME280;77266;52.284;20.890;2024-03-17T05:35:38;100522.91;;;18.79;43.33
86602;BME280;77266;52.284;20.890;2024-03-17T05:38:08;100522.20;;;18.85;43.08
86602;BME280;77266;52.284;20.890;2024-03-17T05:40:39;100525.66;;;18.88;42.99
86602;BME280;77266;52.284;20.890;2024-03-17T05:43:14;100526.18;;;18.94;42.83
86602;BME280;77266;52.284;20.890;2024-03-17T05:45:44;100526.03;;;19.03;42.56
86602;BME280;77266;52.284;20.890;2024-03-17T05:48:15;100526.41;;;19.08;42.38
86602;BME280;77266;52.284;20.890;2024-03-17T05:50:45;100527.55;;;19.13;42.15
86602;BME280;77266;52.284;20.890;2024-03-17T05:53:16;100526.94;;;19.18;42.27
86602;BME280;77266;52.284;20.890;2024-03-17T05:55:47;100522.09;;;19.25;42.05
86602;BME280;77266;52.284;20.890;2024-03-17T05:58:17;100518.57;;;19.30;42.14
86602;BME280;77266;52.284;20.890;2024-03-17T06:00:51;100518.34;;;19.34;41.85
86602;BME280;77266;52.284;20.890;2024-03-17T06:03:23;100526.44;;;19.37;41.86
86602;BME280;77266;52.284;20.890;2024-03-17T06:05:58;100526.88;;;19.38;41.77
86602;BME280;77266;52.284;20.890;2024-03-17T06:08:29;100527.11;;;19.40;41.46
86602;BME280;77266;52.284;20.890;2024-03-17T06:10:59;100526.45;;;19.44;41.62
86602;BME280;77266;52.284;20.890;2024-03-17T06:13:35;100524.35;;;19.48;41.59
86602;BME280;77266;52.284;20.890;2024-03-17T06:16:15;100525.21;;;19.53;41.35
86602;BME280;77266;52.284;20.890;2024-03-17T06:18:44;100527.26;;;19.56;41.33
86602;BME280;77266;52.284;20.890;2024-03-17T06:21:15;100527.80;;;19.57;41.15
86602;BME280;77266;52.284;20.890;2024-03-17T06:23:47;100530.45;;;19.55;40.91
86602;BME280;77266;52.284;20.890;2024-03-17T06:26:17;100530.54;;;19.57;40.86
86602;BME280;77266;52.284;20.890;2024-03-17T06:28:52;100529.70;;;19.62;40.46
86602;BME280;77266;52.284;20.890;2024-03-17T06:31:27;100531.84;;;19.54;40.54
86602;BME280;77266;52.284;20.890;2024-03-17T06:33:58;100532.28;;;19.67;40.32
86602;BME280;77266;52.284;20.890;2024-03-17T06:36:30;100530.04;;;19.73;40.29
86602;BME280;77266;52.284;20.890;2024-03-17T06:39:04;100533.28;;;19.67;40.42
86602;BME280;77266;52.284;20.890;2024-03-17T06:41:34;100531.38;;;19.70;39.93
86602;BME280;77266;52.284;20.890;2024-03-17T06:44:08;100530.27;;;19.68;40.17
86602;BME280;77266;52.284;20.890;2024-03-17T06:46:38;100538.52;;;19.68;39.52
86602;BME280;77266;52.284;20.890;2024-03-17T06:49:08;100535.20;;;19.74;39.98
86602;BME280;77266;52.284;20.890;2024-03-17T06:51:42;100535.27;;;19.79;39.59
86602;BME280;77266;52.284;20.890;2024-03-17T06:54:14;100536.14;;;19.74;39.15
86602;BME280;77266;52.284;20.890;2024-03-17T06:56:46;100532.23;;;19.49;36.95
86602;BME280;77266;52.284;20.890;2024-03-17T06:59:17;100537.79;;;19.26;37.18
86602;BME280;77266;52.284;20.890;2024-03-17T07:01:51;100535.86;;;19.25;36.66
86602;BME280;77266;52.284;20.890;2024-03-17T07:04:22;100536.11;;;19.51;38.15
86602;BME280;77266;52.284;20.890;2024-03-17T07:06:55;100539.14;;;19.70;38.28
86602;BME280;77266;52.284;20.890;2024-03-17T07:09:25;100532.21;;;19.58;37.56
86602;BME280;77266;52.284;20.890;2024-03-17T07:11:56;100537.52;;;19.62;37.67
86602;BME280;77266;52.284;20.890;2024-03-17T07:14:26;100538.67;;;19.72;36.66
86602;BME280;77266;52.284;20.890;2024-03-17T07:17:00;100535.53;;;19.04;34.42
86602;BME280;77266;52.284;20.890;2024-03-17T07:19:31;100539.54;;;19.12;36.24
86602;BME280;77266;52.284;20.890;2024-03-17T07:22:03;100538.62;;;19.06;35.88
86602;BME280;77266;52.284;20.890;2024-03-17T07:24:38;100543.61;;;19.57;37.15
86602;BME280;77266;52.284;20.890;2024-03-17T07:27:08;100545.25;;;19.72;36.99
86602;BME280;77266;52.284;20.890;2024-03-17T07:29:46;100550.73;;;19.57;36.68
86602;BME280;77266;52.284;20.890;2024-03-17T07:32:21;100550.42;;;19.40;35.38
86602;BME280;77266;52.284;20.890;2024-03-17T07:34:55;100552.58;;;19.65;37.33
86602;BME280;77266;52.284;20.890;2024-03-17T07:37:31;100555.41;;;19.71;36.75
86602;BME280;77266;52.284;20.890;2024-03-17T07:40:05;100552.23;;;19.75;36.87
86602;BME280;77266;52.284;20.890;2024-03-17T07:42:38;100555.70;;;19.89;36.93
86602;BME280;77266;52.284;20.890;2024-03-17T07:45:09;100552.39;;;19.86;36.60
86602;BME280;77266;52.284;20.890;2024-03-17T07:47:40;100555.02;;;20.10;38.46
86602;BME280;77266;52.284;20.890;2024-03-17T07:50:10;100556.36;;;20.01;37.75
86602;BME280;77266;52.284;20.890;2024-03-17T07:52:42;100555.81;;;20.06;36.76
86602;BME280;77266;52.284;20.890;2024-03-17T07:55:12;100557.07;;;19.96;36.66
86602;BME280;77266;52.284;20.890;2024-03-17T07:57:42;100556.90;;;20.34;37.90
86602;BME280;77266;52.284;20.890;2024-03-17T08:00:14;100557.39;;;20.32;36.33
86602;BME280;77266;52.284;20.890;2024-03-17T08:02:47;100559.14;;;20.28;36.60
86602;BME280;77266;52.284;20.890;2024-03-17T08:05:18;100556.73;;;20.29;36.07
86602;BME280;77266;52.284;20.890;2024-03-17T08:07:50;100547.80;;;20.45;37.17
86602;BME280;77266;52.284;20.890;2024-03-17T08:10:23;100547.38;;;20.44;35.51
86602;BME280;77266;52.284;20.890;2024-03-17T08:12:55;100549.08;;;20.60;37.04
86602;BME280;77266;52.284;20.890;2024-03-17T08:15:25;100547.34;;;20.64;36.42
86602;BME280;77266;52.284;20.890;2024-03-17T08:17:57;100551.53;;;20.72;36.12
86602;BME280;77266;52.284;20.890;2024-03-17T08:20:27;100551.83;;;20.67;35.64
86602;BME280;77266;52.284;20.890;2024-03-17T08:23:00;100549.80;;;20.56;35.34
86602;BME280;77266;52.284;20.890;2024-03-17T08:25:32;100544.86;;;20.63;35.80
86602;BME280;77266;52.284;20.890;2024-03-17T08:28:03;100549.70;;;20.47;33.87
86602;BME280;77266;52.284;20.890;2024-03-17T08:30:33;100555.14;;;19.89;32.94
86602;BME280;77266;52.284;20.890;2024-03-17T08:33:05;100555.95;;;20.18;35.23
86602;BME280;77266;52.284;20.890;2024-03-17T08:35:39;100552.35;;;20.35;35.02
86602;BME280;77266;52.284;20.890;2024-03-17T08:38:11;100552.58;;;20.46;35.28
86602;BME280;77266;52.284;20.890;2024-03-17T08:40:49;100554.05;;;20.37;34.25
86602;BME280;77266;52.284;20.890;2024-03-17T08:43:24;100555.80;;;20.03;33.45
86602;BME280;77266;52.284;20.890;2024-03-17T08:45:59;100559.13;;;20.29;34.99
86602;BME280;77266;52.284;20.890;2024-03-17T08:48:34;100557.10;;;20.29;33.70
86602;BME280;77266;52.284;20.890;2024-03-17T08:51:07;100558.92;;;19.83;33.42
86602;BME280;77266;52.284;20.890;2024-03-17T08:53:38;100558.55;;;19.90;34.14
86602;BME280;77266;52.284;20.890;2024-03-17T08:56:09;100557.80;;;20.10;34.87
86602;BME280;77266;52.284;20.890;2024-03-17T08:58:40;100557.05;;;20.25;34.92
86602;BME280;77266;52.284;20.890;2024-03-17T09:01:13;100557.50;;;20.21;35.09
86602;BME280;77266;52.284;20.890;2024-03-17T09:03:44;100560.39;;;20.26;35.33
86602;BME280;77266;52.284;20.890;2024-03-17T09:06:18;100566.39;;;20.15;34.58
86602;BME280;77266;52.284;20.890;2024-03-17T09:08:53;100564.61;;;19.93;34.83
86602;BME280;77266;52.284;20.890;2024-03-17T09:11:25;100569.64;;;20.17;34.86
86602;BME280;77266;52.284;20.890;2024-03-17T09:13:59;100579.31;;;20.14;35.49
86602;BME280;77266;52.284;20.890;2024-03-17T09:16:30;100580.69;;;20.20;34.69
86602;BME280;77266;52.284;20.890;2024-03-17T09:19:03;100577.19;;;19.95;35.38
86602;BME280;77266;52.284;20.890;2024-03-17T09:21:34;100566.59;;;20.18;35.65
86602;BME280;77266;52.284;20.890;2024-03-17T09:24:05;100569.33;;;20.24;35.62
86602;BME280;77266;52.284;20.890;2024-03-17T09:26:36;100569.45;;;20.19;35.54
86602;BME280;77266;52.284;20.890;2024-03-17T09:29:08;100577.67;;;20.18;35.09
86602;BME280;77266;52.284;20.890;2024-03-17T09:31:41;100584.07;;;20.26;35.63
86602;BME280;77266;52.284;20.890;2024-03-17T09:34:13;100572.56;;;20.20;35.78
86602;BME280;77266;52.284;20.890;2024-03-17T09:36:49;100571.96;;;19.75;35.03
86602;BME280;77266;52.284;20.890;2024-03-17T09:39:24;100571.70;;;19.82;34.10
86602;BME280;77266;52.284;20.890;2024-03-17T09:41:57;100579.08;;;20.10;35.72
86602;BME280;77266;52.284;20.890;2024-03-17T09:44:29;100576.46;;;20.31;35.45
86602;BME280;77266;52.284;20.890;2024-03-17T09:47:00;100575.29;;;20.47;35.41
86602;BME280;77266;52.284;20.890;2024-03-17T09:49:32;100570.75;;;20.51;35.30
86602;BME280;77266;52.284;20.890;2024-03-17T09:52:09;100569.80;;;20.53;35.33
86602;BME280;77266;52.284;20.890;2024-03-17T09:54:46;100572.20;;;20.57;35.58
86602;BME280;77266;52.284;20.890;2024-03-17T09:57:18;100577.66;;;20.43;34.50
86602;BME280;77266;52.284;20.890;2024-03-17T09:59:54;100580.29;;;20.28;35.19
86602;BME280;77266;52.284;20.890;2024-03-17T10:02:27;100574.98;;;20.46;35.88
86602;BME280;77266;52.284;20.890;2024-03-17T10:04:57;100578.13;;;20.49;35.57
86602;BME280;77266;52.284;20.890;2024-03-17T10:07:38;100578.71;;;20.35;35.50
86602;BME280;77266;52.284;20.890;2024-03-17T10:10:15;100582.59;;;20.41;37.05
86602;BME280;77266;52.284;20.890;2024-03-17T10:12:50;100576.27;;;20.45;36.53
86602;BME280;77266;52.284;20.890;2024-03-17T10:15:22;100573.84;;;20.39;36.08
86602;BME280;77266;52.284;20.890;2024-03-17T10:17:53;100573.15;;;20.14;35.75
86602;BME280;77266;52.284;20.890;2024-03-17T10:20:25;100573.67;;;20.27;36.38
86602;BME280;77266;52.284;20.890;2024-03-17T10:23:02;100571.41;;;20.08;35.48
86602;BME280;77266;52.284;20.890;2024-03-17T10:25:33;100575.51;;;20.34;36.04
86602;BME280;77266;52.284;20.890;2024-03-17T10:28:11;100569.87;;;20.43;35.87
86602;BME280;77266;52.284;20.890;2024-03-17T10:30:42;100566.63;;;20.49;35.99
86602;BME280;77266;52.284;20.890;2024-03-17T10:33:27;100568.45;;;20.45;35.59
86602;BME280;77266;52.284;20.890;2024-03-17T10:36:01;100567.36;;;20.31;35.26
86602;BME280;77266;52.284;20.890;2024-03-17T10:38:36;100572.89;;;20.42;36.08
86602;BME280;77266;52.284;20.890;2024-03-17T10:41:07;100574.96;;;20.31;35.31
86602;BME280;77266;52.284;20.890;2024-03-17T10:43:41;100574.52;;;20.31;35.47
86602;BME280;77266;52.284;20.890;2024-03-17T10:46:14;100574.75;;;20.26;35.48
86602;BME280;77266;52.284;20.890;2024-03-17T10:48:47;100578.85;;;20.37;35.78
86602;BME280;77266;52.284;20.890;2024-03-17T10:51:18;100580.36;;;20.36;35.72
86602;BME280;77266;52.284;20.890;2024-03-17T10:53:49;100580.73;;;20.45;35.71
86602;BME280;77266;52.284;20.890;2024-03-17T10:56:23;100581.25;;;20.44;35.79
86602;BME280;77266;52.284;20.890;2024-03-17T10:58:55;100576.45;;;20.27;35.76
86602;BME280;77266;52.284;20.890;2024-03-17T11:01:29;100578.13;;;20.37;35.85
86602;BME280;77266;52.284;20.890;2024-03-17T11:04:01;100580.97;;;20.41;35.64
86602;BME280;77266;52.284;20.890;2024-03-17T11:06:33;100580.83;;;20.44;35.81
86602;BME280;77266;52.284;20.890;2024-03-17T11:09:05;100579.61;;;20.45;35.76
86602;BME280;77266;52.284;20.890;2024-03-17T11:11:39;100579.08;;;20.44;35.76
86602;BME280;77266;52.284;20.890;2024-03-17T11:14:22;100582.02;;;20.45;35.64
86602;BME280;77266;52.284;20.890;2024-03-17T11:16:52;100576.01;;;20.35;35.08
86602;BME280;77266;52.284;20.890;2024-03-17T11:19:24;100582.30;;;20.41;35.69
86602;BME280;77266;52.284;20.890;2024-03-17T11:21:58;100578.05;;;20.43;35.51
86602;BME280;77266;52.284;20.890;2024-03-17T11:24:53;100577.02;;;20.40;35.12
86602;BME280;77266;52.284;20.890;2024-03-17T11:27:41;100584.59;;;20.19;35.31
86602;BME280;77266;52.284;20.890;2024-03-17T11:36:34;100598.33;;;20.00;33.92
86602;BME280;77266;52.284;20.890;2024-03-17T11:39:08;100596.83;;;20.16;35.39
86602;BME280;77266;52.284;20.890;2024-03-17T11:41:51;100594.69;;;20.31;35.56
86602;BME280;77266;52.284;20.890;2024-03-17T11:44:28;100599.20;;;20.39;35.45
86602;BME280;77266;52.284;20.890;2024-03-17T11:46:59;100593.76;;;20.39;35.38
86602;BME280;77266;52.284;20.890;2024-03-17T11:49:32;100594.59;;;20.43;35.09
86602;BME280;77266;52.284;20.890;2024-03-17T11:52:07;100591.38;;;20.33;35.45
86602;BME280;77266;52.284;20.890;2024-03-17T11:54:40;100591.27;;;20.43;35.04
86602;BME280;77266;52.284;20.890;2024-03-17T11:57:13;100590.98;;;20.39;35.65
86602;BME280;77266;52.284;20.890;2024-03-17T11:59:46;100586.60;;;20.48;35.52
86602;BME280;77266;52.284;20.890;2024-03-17T12:02:19;100591.04;;;20.39;34.66
86602;BME280;77266;52.284;20.890;2024-03-17T12:04:52;100588.06;;;20.29;34.97
86602;BME280;77266;52.284;20.890;2024-03-17T12:07:24;100585.75;;;20.43;34.78
86602;BME280;77266;52.284;20.890;2024-03-17T12:09:56;100585.88;;;20.36;35.24
86602;BME280;77266;52.284;20.890;2024-03-17T12:12:28;100582.21;;;20.58;35.08
86602;BME280;77266;52.284;20.890;2024-03-17T12:15:15;100578.11;;;20.39;34.24
86602;BME280;77266;52.284;20.890;2024-03-17T12:17:53;100579.17;;;20.34;34.73
86602;BME280;77266;52.284;20.890;2024-03-17T12:20:27;100580.08;;;20.34;34.39
86602;BME280;77266;52.284;20.890;2024-03-17T12:23:00;100579.10;;;20.14;33.13
86602;BME280;77266;52.284;20.890;2024-03-17T12:25:32;100579.10;;;20.33;34.40
86602;BME280;77266;52.284;20.890;2024-03-17T12:28:04;100580.80;;;20.46;34.00
86602;BME280;77266;52.284;20.890;2024-03-17T12:30:41;100578.86;;;19.95;33.51
86602;BME280;77266;52.284;20.890;2024-03-17T12:33:13;100580.83;;;20.19;34.57
86602;BME280;77266;52.284;20.890;2024-03-17T12:35:45;100579.67;;;20.31;33.69
86602;BME280;77266;52.284;20.890;2024-03-17T12:38:23;100581.02;;;20.26;34.04
86602;BME280;77266;52.284;20.890;2024-03-17T12:40:54;100573.03;;;20.39;34.30
86602;BME280;77266;52.284;20.890;2024-03-17T12:43:24;100580.66;;;20.45;33.92
86602;BME280;77266;52.284;20.890;2024-03-17T12:45:58;100572.98;;;20.27;33.34
86602;BME280;77266;52.284;20.890;2024-03-17T12:48:28;100571.99;;;20.14;33.97
86602;BME280;77266;52.284;20.890;2024-03-17T12:51:01;100565.55;;;20.39;33.86
86602;BME280;77266;52.284;20.890;2024-03-17T12:53:35;100561.86;;;20.51;33.93
86602;BME280;77266;52.284;20.890;2024-03-17T12:56:08;100567.91;;;20.12;33.20
86602;BME280;77266;52.284;20.890;2024-03-17T12:58:54;100562.05;;;20.31;33.54
86602;BME280;77266;52.284;20.890;2024-03-17T13:01:51;100559.36;;;20.38;33.62
86602;BME280;77266;52.284;20.890;2024-03-17T13:04:22;100554.72;;;20.55;34.13
86602;BME280;77266;52.284;20.890;2024-03-17T13:06:53;100554.54;;;20.42;33.32
86602;BME280;77266;52.284;20.890;2024-03-17T13:09:24;100557.48;;;20.43;33.79
86602;BME280;77266;52.284;20.890;2024-03-17T13:11:58;100563.61;;;20.37;33.76
86602;BME280;77266;52.284;20.890;2024-03-17T13:14:28;100566.06;;;20.26;33.28